Terminal Aerodrome Forecast
Issued by NWS Wilmington, NC

Home | Current Version | Previous Version | Text Only | Print | Product List | Glossary On
Versions: 1 2 3 4 5 6 7 8 9 10 11 12 13 14
809
FTUS42 KILM 281827 AAA
TAFLBT
TAF AMD
KLBT 281827Z 2818/2918 23012KT P6SM SKC
     FM290100 22004KT P6SM SKC
     FM291000 23003KT 5SM BR SKC
     FM291300 26010KT P6SM SKC
     FM291600 28011G18KT P6SM SKC=

USA.gov is the U.S. government's official web portal to all federal, state and local government web resources and services.